Time;durP1;ratioP1;P1;durP2;ratioP2;P2;SDS_P1;SDS_P2;PMS_P1;PMS_P2;Temp;Humidity;BMP_temperature;BMP_pressure;BME280_temperature;BME280_humidity;BME280_pressure;Samples;Min_cycle;Max_cycle;Signal;HPM_P1;HPM_P2
2024/01/24 00:01:39;;;;;;;27.38;14.30;;;;;;;0.45;93.31;100947.47;5081690;28;20258;-63
2024/01/24 00:04:05;;;;;;;22.40;12.57;;;;;;;0.46;92.17;100949.16;5081499;28;20032;-62
2024/01/24 00:06:31;;;;;;;23.52;14.43;;;;;;;0.04;94.14;100946.69;5081189;28;20032;-61
2024/01/24 00:08:56;;;;;;;21.48;12.98;;;;;;;0.05;95.13;100956.19;5081488;28;20156;-62
2024/01/24 00:11:22;;;;;;;24.02;15.00;;;;;;;0.07;94.88;100955.22;5081500;28;20095;-64
2024/01/24 00:13:47;;;;;;;28.48;13.48;;;;;;;0.06;95.17;100955.28;5080638;28;20033;-63
2024/01/24 00:16:12;;;;;;;31.15;14.82;;;;;;;0.21;94.21;100962.44;5081485;28;20416;-62
2024/01/24 00:18:38;;;;;;;27.05;14.52;;;;;;;0.25;94.38;100964.00;5081324;28;20071;-61
2024/01/24 00:21:03;;;;;;;21.50;12.70;;;;;;;0.04;95.08;100955.34;5081183;28;20044;-62
2024/01/24 00:23:29;;;;;;;20.13;13.00;;;;;;;0.35;94.97;100956.63;5081426;28;20040;-61
2024/01/24 00:25:54;;;;;;;26.05;13.80;;;;;;;0.42;94.15;100960.66;5081180;28;20032;-63
2024/01/24 00:28:21;;;;;;;27.42;14.98;;;;;;;0.67;93.21;100965.59;5081223;28;20035;-63
2024/01/24 00:30:47;;;;;;;31.48;15.45;;;;;;;0.83;91.83;100979.63;5075134;28;20040;-62
2024/01/24 00:33:12;;;;;;;22.48;12.70;;;;;;;1.03;90.49;100971.72;5080523;28;20036;-62
2024/01/24 00:35:38;;;;;;;23.38;13.48;;;;;;;1.16;90.28;100964.22;5081467;28;20032;-62
2024/01/24 00:38:03;;;;;;;19.20;12.02;;;;;;;1.33;89.43;100956.41;5081771;28;20086;-62
2024/01/24 00:40:29;;;;;;;19.85;12.00;;;;;;;1.34;88.74;100967.72;5081277;28;20063;-61
2024/01/24 00:42:54;;;;;;;36.47;17.00;;;;;;;1.54;87.54;100965.81;5081344;28;20341;-63
2024/01/24 00:45:20;;;;;;;37.92;20.20;;;;;;;1.63;86.20;100966.28;5081207;28;20360;-63
2024/01/24 00:47:45;;;;;;;33.13;14.40;;;;;;;1.53;86.01;100974.56;5081001;28;20334;-63
2024/01/24 00:50:11;;;;;;;25.98;13.15;;;;;;;1.64;85.96;100981.88;5080602;28;20043;-62
2024/01/24 00:52:36;;;;;;;23.98;14.10;;;;;;;1.59;85.51;100971.66;5080461;28;20040;-62
2024/01/24 00:55:02;;;;;;;30.52;17.52;;;;;;;1.42;85.79;100983.84;5080933;28;20082;-63
2024/01/24 00:57:27;;;;;;;26.02;16.05;;;;;;;1.54;86.15;100978.88;5080725;28;20043;-63
2024/01/24 00:59:53;;;;;;;22.40;14.25;;;;;;;1.49;85.27;100970.41;5074721;28;20309;-62
2024/01/24 01:02:18;;;;;;;20.15;11.23;;;;;;;1.45;85.79;100957.59;5080324;28;20056;-61
2024/01/24 01:04:44;;;;;;;19.15;11.55;;;;;;;1.49;85.49;100953.91;5080629;28;20512;-62
2024/01/24 01:07:10;;;;;;;18.52;11.80;;;;;;;1.53;84.55;100964.13;5080414;28;20033;-62
2024/01/24 01:09:38;;;;;;;17.77;10.55;;;;;;;1.43;84.46;100956.81;5080157;28;20095;-63
2024/01/24 01:12:04;;;;;;;34.92;17.58;;;;;;;1.46;85.04;100959.28;5080226;28;20456;-63
2024/01/24 01:14:29;;;;;;;33.20;16.15;;;;;;;1.20;85.98;100957.94;5080496;28;20052;-62
2024/01/24 01:16:55;;;;;;;15.82;11.20;;;;;;;1.18;85.71;100958.00;5078904;28;20054;-61
2024/01/24 01:19:20;;;;;;;19.42;11.32;;;;;;;1.12;86.35;100968.72;5080143;28;20043;-62
2024/01/24 01:21:46;;;;;;;22.83;12.63;;;;;;;1.06;86.55;100974.22;5079937;28;20091;-63
2024/01/24 01:24:11;;;;;;;19.45;11.90;;;;;;;0.85;86.83;100957.78;5076003;28;20091;-62
2024/01/24 01:26:37;;;;;;;20.73;12.90;;;;;;;0.64;87.97;100963.97;5080366;28;20041;-61
2024/01/24 01:29:02;;;;;;;21.77;11.75;;;;;;;0.73;87.86;100968.78;5080123;28;20036;-61
2024/01/24 01:31:28;;;;;;;21.88;12.93;;;;;;;0.59;88.81;100965.94;5079575;28;20040;-62
2024/01/24 01:33:53;;;;;;;20.13;11.98;;;;;;;0.51;89.45;100965.44;5079614;28;20108;-63
2024/01/24 01:36:19;;;;;;;15.60;10.70;;;;;;;0.63;88.88;100959.69;5080257;28;20099;-63
2024/01/24 01:38:45;;;;;;;20.55;13.02;;;;;;;0.66;88.76;100964.75;5079778;28;20037;-61
2024/01/24 01:41:10;;;;;;;26.17;15.45;;;;;;;0.74;88.29;100943.56;5078173;28;20095;-61
2024/01/24 01:43:35;;;;;;;25.75;13.88;;;;;;;0.71;88.12;100951.50;5080385;28;20823;-63
2024/01/24 01:46:06;;;;;;;24.63;15.05;;;;;;;0.44;90.20;100953.59;5072335;28;20345;-63
2024/01/24 01:48:33;;;;;;;22.55;15.48;;;;;;;0.55;89.56;100949.59;5079843;28;20036;-63
2024/01/24 01:50:59;;;;;;;26.60;16.48;;;;;;;0.42;90.28;100958.03;5075709;28;20034;-62
2024/01/24 01:53:25;;;;;;;21.58;13.07;;;;;;;0.42;90.38;100952.81;5079719;28;20036;-62
2024/01/24 01:55:50;;;;;;;28.15;15.65;;;;;;;0.26;90.39;100922.25;5078755;28;20416;-63
2024/01/24 01:58:16;;;;;;;26.45;13.88;;;;;;;0.42;89.94;100948.47;5079595;28;20039;-63
2024/01/24 02:00:46;;;;;;;24.20;12.70;;;;;;;0.35;91.05;100946.19;5072753;28;20036;-62
2024/01/24 02:03:12;;;;;;;17.95;12.43;;;;;;;0.17;91.29;100943.50;5079556;28;20044;-62
2024/01/24 02:05:39;;;;;;;25.15;12.48;;;;;;;0.47;90.69;100941.28;5078876;28;20208;-62
2024/01/24 02:08:05;;;;;;;17.65;11.07;;;;;;;0.68;89.52;100954.25;5078728;28;20032;-63
2024/01/24 02:10:30;;;;;;;20.25;12.02;;;;;;;0.79;88.23;100942.44;5072374;28;20230;-63
2024/01/24 02:12:56;;;;;;;21.40;10.55;;;;;;;0.96;87.29;100939.88;5076676;28;20036;-61
2024/01/24 02:15:21;;;;;;;15.02;9.93;;;;;;;0.98;86.41;100939.81;5074845;28;20033;-62
2024/01/24 02:17:47;;;;;;;16.42;10.30;;;;;;;0.94;86.10;100939.09;5077360;28;20039;-63
2024/01/24 02:20:13;;;;;;;25.23;16.05;;;;;;;0.87;86.59;100939.47;5076664;28;20040;-63
2024/01/24 02:22:39;;;;;;;43.67;24.25;;;;;;;0.70;87.02;100939.41;5077714;28;20110;-63
2024/01/24 02:25:05;;;;;;;26.17;19.10;;;;;;;0.81;86.97;100940.59;5079003;28;20052;-61
2024/01/24 02:27:30;;;;;;;28.15;17.98;;;;;;;0.89;86.83;100940.25;5062738;28;20036;-62
2024/01/24 02:29:59;;;;;;;26.40;16.48;;;;;;;0.99;86.37;100941.50;5079061;28;20103;-61
2024/01/24 02:32:25;;;;;;;17.83;11.48;;;;;;;0.75;87.64;100946.09;5076847;28;20036;-63
2024/01/24 02:34:50;;;;;;;32.47;19.90;;;;;;;0.98;87.49;100944.19;5079525;28;20036;-63
2024/01/24 02:37:16;;;;;;;36.65;22.70;;;;;;;1.12;86.44;100945.25;5066953;28;20041;-62
2024/01/24 02:39:41;;;;;;;19.75;11.95;;;;;;;1.15;85.06;100942.50;5078610;28;20040;-62
2024/01/24 02:42:08;;;;;;;26.73;13.38;;;;;;;1.14;85.49;100948.63;5072515;28;20032;-61
2024/01/24 02:44:34;;;;;;;21.25;14.10;;;;;;;1.30;84.31;100946.13;5078167;28;20100;-62
2024/01/24 02:46:59;;;;;;;27.80;16.63;;;;;;;1.30;84.73;100943.53;5076491;28;20037;-63
2024/01/24 02:49:25;;;;;;;30.70;16.73;;;;;;;1.35;84.35;100945.91;5077767;28;20031;-62
2024/01/24 02:51:50;;;;;;;16.75;11.27;;;;;;;1.36;83.33;100942.38;5078188;28;20040;-61
2024/01/24 02:54:16;;;;;;;21.13;10.93;;;;;;;1.41;83.54;100950.84;5077061;28;20048;-62
2024/01/24 02:56:41;;;;;;;13.25;8.48;;;;;;;1.39;83.22;100950.91;5075090;28;20021;-62
2024/01/24 02:59:07;;;;;;;18.42;11.52;;;;;;;1.27;83.71;100948.88;5076857;28;20036;-63
2024/01/24 03:01:32;;;;;;;18.40;11.02;;;;;;;1.15;84.32;100942.50;5077954;28;20099;-63
2024/01/24 03:03:57;;;;;;;13.18;9.07;;;;;;;0.95;86.08;100955.59;5077523;28;20078;-62
2024/01/24 03:06:23;;;;;;;18.95;11.68;;;;;;;0.91;88.32;100952.28;5078753;28;20047;-62
2024/01/24 03:08:51;;;;;;;16.05;10.30;;;;;;;0.98;89.09;100945.03;5070069;28;20040;-61
2024/01/24 03:11:16;;;;;;;16.83;10.32;;;;;;;1.04;90.16;100944.75;5078601;28;20036;-63
2024/01/24 03:13:42;;;;;;;18.77;12.48;;;;;;;1.06;90.34;100945.53;5073288;28;20324;-63
2024/01/24 03:16:08;;;;;;;22.02;12.05;;;;;;;0.75;90.92;100943.47;5078177;28;20025;-62
2024/01/24 03:18:37;;;;;;;14.70;8.40;;;;;;;0.30;93.18;100947.25;5077231;28;20326;-61
2024/01/24 03:21:05;;;;;;;15.82;9.52;;;;;;;0.13;94.67;100947.13;5077703;28;20314;-62
2024/01/24 03:23:31;;;;;;;17.92;9.75;;;;;;;0.18;94.61;100949.53;5071804;28;20029;-63
2024/01/24 03:25:57;;;;;;;17.70;9.50;;;;;;;0.19;93.89;100954.69;5077223;28;20535;-63
2024/01/24 03:28:22;;;;;;;13.15;8.27;;;;;;;0.31;94.27;100961.13;5073991;28;20040;-61
2024/01/24 03:30:48;;;;;;;17.08;11.07;;;;;;;0.35;94.61;100951.41;5077372;28;20055;-61
2024/01/24 03:33:13;;;;;;;15.63;8.63;;;;;;;0.40;94.86;100952.06;5069509;28;20068;-61
2024/01/24 03:35:39;;;;;;;13.93;7.20;;;;;;;0.48;95.49;100957.78;5075465;28;20313;-63
2024/01/24 03:38:04;;;;;;;12.40;7.68;;;;;;;0.49;96.08;100959.47;5072504;28;20037;-63
2024/01/24 03:40:30;;;;;;;12.65;7.38;;;;;;;0.67;95.34;100957.78;5075994;28;20086;-62
2024/01/24 03:42:56;;;;;;;11.25;7.43;;;;;;;0.82;95.07;100952.72;5075109;28;20399;-61
2024/01/24 03:45:22;;;;;;;13.18;7.93;;;;;;;0.95;95.74;100956.44;5076678;28;20032;-61
2024/01/24 03:47:49;;;;;;;15.23;7.65;;;;;;;1.16;96.47;100952.00;5078082;28;20479;-63
2024/01/24 03:50:15;;;;;;;11.13;6.70;;;;;;;1.31;96.86;100954.81;5066995;28;20230;-63
2024/01/24 03:52:40;;;;;;;12.68;6.78;;;;;;;1.40;98.48;100955.22;5077825;28;20032;-61
2024/01/24 03:55:06;;;;;;;12.65;7.38;;;;;;;1.44;99.62;100954.13;5075807;28;20040;-62
2024/01/24 03:57:31;;;;;;;14.77;7.55;;;;;;;1.54;100.00;100960.59;5077270;28;20036;-61
2024/01/24 03:59:57;;;;;;;12.82;7.03;;;;;;;1.66;100.00;100953.94;5076035;28;20037;-63
2024/01/24 04:02:22;;;;;;;12.70;7.97;;;;;;;1.61;100.00;100955.91;5077029;28;20170;-63
2024/01/24 04:04:49;;;;;;;11.38;7.32;;;;;;;1.69;100.00;100958.16;5070091;28;20080;-62
2024/01/24 04:07:14;;;;;;;10.02;7.22;;;;;;;1.71;100.00;100958.91;5077521;28;20041;-61
2024/01/24 04:09:40;;;;;;;13.75;8.60;;;;;;;1.90;100.00;100965.75;5074050;28;20223;-62
2024/01/24 04:12:06;;;;;;;14.00;8.73;;;;;;;1.81;100.00;100963.59;5076824;28;20242;-62
2024/01/24 04:14:31;;;;;;;10.45;6.30;;;;;;;1.94;100.00;100974.28;5076833;28;20039;-63
2024/01/24 04:16:57;;;;;;;11.05;7.30;;;;;;;2.10;100.00;100971.78;5076170;28;20305;-63
2024/01/24 04:19:22;;;;;;;11.25;7.07;;;;;;;2.18;99.67;100980.06;5073823;28;20048;-64
2024/01/24 04:21:48;;;;;;;13.90;7.70;;;;;;;2.21;99.64;100977.28;5070187;28;20021;-62
2024/01/24 04:24:13;;;;;;;12.18;7.18;;;;;;;2.24;99.67;100985.81;5076345;28;20053;-63
2024/01/24 04:26:39;;;;;;;12.98;7.55;;;;;;;2.27;100.00;100986.59;5075677;28;20060;-63
2024/01/24 04:29:05;;;;;;;14.80;7.70;;;;;;;2.24;100.00;100979.75;5076841;28;20346;-64
2024/01/24 04:31:30;;;;;;;16.60;8.88;;;;;;;2.21;100.00;100985.13;5067701;28;20028;-62
2024/01/24 04:33:56;;;;;;;13.48;7.25;;;;;;;2.22;100.00;100973.75;5077715;28;20049;-62
2024/01/24 04:36:21;;;;;;;16.00;8.25;;;;;;;2.23;100.00;100983.28;5072035;28;20032;-64
2024/01/24 04:38:46;;;;;;;15.68;9.73;;;;;;;2.25;100.00;100986.66;5077727;28;20314;-63
2024/01/24 04:41:12;;;;;;;12.13;8.07;;;;;;;2.25;100.00;100984.06;5076366;28;20192;-63
2024/01/24 04:43:38;;;;;;;15.00;7.95;;;;;;;2.27;100.00;100979.59;5079359;28;20036;-62
2024/01/24 04:46:04;;;;;;;12.48;7.03;;;;;;;2.30;100.00;100986.44;5075497;28;20458;-62
2024/01/24 04:48:29;;;;;;;12.73;8.00;;;;;;;2.33;100.00;100979.28;5080455;28;20070;-63
2024/01/24 04:50:55;;;;;;;18.75;9.63;;;;;;;2.36;100.00;100981.72;5079215;28;20028;-63
2024/01/24 04:53:20;;;;;;;16.55;8.57;;;;;;;2.42;100.00;100991.03;5079969;28;20126;-62
2024/01/24 04:55:46;;;;;;;15.15;7.95;;;;;;;2.42;100.00;100988.41;5075076;28;20033;-62
2024/01/24 04:58:11;;;;;;;14.57;8.05;;;;;;;2.44;100.00;100995.25;5076766;28;20261;-62
2024/01/24 05:00:37;;;;;;;16.17;8.15;;;;;;;2.54;100.00;100996.44;5076261;28;20068;-64
2024/01/24 05:03:02;;;;;;;10.20;6.78;;;;;;;2.58;99.91;100993.69;5077091;28;20055;-64
2024/01/24 05:05:28;;;;;;;12.98;6.47;;;;;;;2.60;100.00;101000.53;5079039;28;20048;-62
2024/01/24 05:07:54;;;;;;;15.30;7.95;;;;;;;2.62;99.60;101001.28;5077817;28;20058;-62
2024/01/24 05:10:20;;;;;;;11.45;6.85;;;;;;;2.60;99.67;100995.28;5080366;28;20322;-63
2024/01/24 05:12:45;;;;;;;13.10;8.10;;;;;;;2.55;100.00;100995.53;5069973;28;20040;-63
2024/01/24 05:15:12;;;;;;;12.32;8.32;;;;;;;2.65;100.00;100993.28;5080523;28;20100;-63
2024/01/24 05:17:39;;;;;;;11.30;7.40;;;;;;;2.73;99.45;101001.56;5074064;28;20045;-62
2024/01/24 05:20:06;;;;;;;17.40;8.48;;;;;;;2.77;99.20;101003.09;5080655;28;20204;-62
2024/01/24 05:22:32;;;;;;;20.83;10.48;;;;;;;2.80;98.99;101007.31;5078034;28;20063;-63
2024/01/24 05:24:58;;;;;;;16.02;9.75;;;;;;;2.81;99.16;101014.22;5080521;28;20032;-64
2024/01/24 05:27:23;;;;;;;14.73;8.40;;;;;;;2.75;99.22;101007.56;5071277;28;20040;-63
2024/01/24 05:29:49;;;;;;;15.60;8.32;;;;;;;2.75;99.79;101006.72;5080011;28;20310;-62
2024/01/24 05:32:14;;;;;;;14.38;7.93;;;;;;;2.74;100.00;101002.41;5074775;28;20041;-63
2024/01/24 05:34:40;;;;;;;12.38;7.35;;;;;;;2.70;100.00;101006.09;5079023;28;20373;-64
2024/01/24 05:37:06;;;;;;;10.85;7.05;;;;;;;2.72;100.00;101025.19;5079952;28;20044;-63
2024/01/24 05:39:31;;;;;;;11.95;7.85;;;;;;;2.75;100.00;101023.25;5079385;28;20364;-62
2024/01/24 05:41:57;;;;;;;12.48;7.90;;;;;;;2.75;100.00;101022.41;5076075;28;20102;-62
2024/01/24 05:44:22;;;;;;;11.20;7.18;;;;;;;2.77;100.00;101016.16;5078628;28;20066;-62
2024/01/24 05:46:48;;;;;;;14.45;7.55;;;;;;;2.77;100.00;101021.41;5077618;28;20028;-63
2024/01/24 05:49:13;;;;;;;13.77;7.75;;;;;;;2.86;100.00;101025.28;5076570;28;20060;-63
2024/01/24 05:51:39;;;;;;;13.57;9.23;;;;;;;2.95;99.52;101016.09;5077549;28;20110;-62
2024/01/24 05:54:04;;;;;;;14.80;9.02;;;;;;;3.04;98.88;101016.44;5076963;28;20041;-63
2024/01/24 05:56:30;;;;;;;16.50;8.68;;;;;;;3.20;98.22;101022.56;5076398;28;20223;-62
2024/01/24 05:58:56;;;;;;;15.05;8.70;;;;;;;3.29;97.25;101028.22;5076698;28;20351;-62
2024/01/24 06:01:21;;;;;;;19.58;9.27;;;;;;;3.35;96.81;101031.34;5076960;28;20047;-64
2024/01/24 06:03:47;;;;;;;13.80;7.45;;;;;;;3.39;95.78;101016.31;5075167;28;20041;-64
2024/01/24 06:06:12;;;;;;;14.40;9.10;;;;;;;3.48;95.42;101031.53;5078048;28;20036;-62
2024/01/24 06:08:38;;;;;;;15.02;8.45;;;;;;;3.48;95.65;101028.91;5076047;28;20316;-62
2024/01/24 06:11:04;;;;;;;19.90;8.15;;;;;;;3.51;95.32;101029.56;5077657;28;20040;-62
2024/01/24 06:13:30;;;;;;;19.75;9.07;;;;;;;3.51;94.67;101023.50;5076914;28;20133;-64
2024/01/24 06:15:56;;;;;;;25.00;16.10;;;;;;;3.39;95.29;101043.34;5077093;28;20044;-63
2024/01/24 06:18:21;;;;;;;18.38;11.60;;;;;;;3.02;95.43;101041.84;5076175;28;20032;-62
2024/01/24 06:20:47;;;;;;;17.60;9.90;;;;;;;3.03;95.86;101048.78;5076589;28;20043;-62
2024/01/24 06:23:13;;;;;;;19.88;12.05;;;;;;;3.08;95.55;101051.16;5075871;28;20056;-62
2024/01/24 06:25:38;;;;;;;23.67;14.80;;;;;;;3.04;95.37;101047.84;5076272;28;20390;-62
2024/01/24 06:28:04;;;;;;;27.08;15.48;;;;;;;3.03;96.13;101050.56;5075953;28;20025;-62
2024/01/24 06:30:30;;;;;;;27.08;12.60;;;;;;;3.18;95.58;101055.00;5076003;28;20290;-64
2024/01/24 06:32:55;;;;;;;21.23;10.80;;;;;;;3.22;95.66;101048.66;5077051;28;20040;-64
2024/01/24 06:35:21;;;;;;;19.23;10.40;;;;;;;3.24;95.68;101051.19;5075049;28;20064;-62
2024/01/24 06:37:48;;;;;;;18.02;9.50;;;;;;;3.34;96.30;101047.16;5077564;28;20253;-62
2024/01/24 06:40:14;;;;;;;15.65;8.30;;;;;;;3.43;95.84;101036.16;5074775;28;20040;-63
2024/01/24 06:42:40;;;;;;;20.15;10.80;;;;;;;3.52;96.02;101033.03;5077479;28;20032;-64
2024/01/24 06:45:07;;;;;;;23.95;12.57;;;;;;;3.66;95.85;101035.72;5075355;28;20107;-63
2024/01/24 06:47:34;;;;;;;27.05;13.18;;;;;;;3.77;95.70;101035.13;5077039;28;20048;-62
2024/01/24 06:49:59;;;;;;;30.55;13.32;;;;;;;3.86;95.28;101050.31;5074788;28;20028;-62
2024/01/24 06:52:25;;;;;;;28.80;14.15;;;;;;;3.82;96.18;101044.41;5077104;28;20035;-62
2024/01/24 06:54:51;;;;;;;29.13;13.98;;;;;;;3.93;96.02;101035.94;5076388;28;20238;-64
2024/01/24 06:57:17;;;;;;;18.25;12.75;;;;;;;4.13;95.62;101040.00;5076332;28;20111;-63
2024/01/24 06:59:43;;;;;;;21.85;12.18;;;;;;;4.22;95.01;101044.75;5074907;28;20036;-62
2024/01/24 07:02:09;;;;;;;23.90;12.77;;;;;;;4.37;94.81;101050.88;5075827;28;20049;-63
2024/01/24 07:04:34;;;;;;;24.33;13.48;;;;;;;4.56;94.24;101048.84;5075786;28;20035;-62
2024/01/24 07:07:00;;;;;;;19.45;10.35;;;;;;;4.50;93.93;101057.06;5075596;28;20223;-62
2024/01/24 07:09:26;;;;;;;16.20;9.18;;;;;;;4.54;93.95;101057.75;5075928;28;20330;-62
2024/01/24 07:11:51;;;;;;;14.15;7.85;;;;;;;4.82;93.22;101061.22;5075780;28;20082;-63
2024/01/24 07:14:17;;;;;;;17.95;9.30;;;;;;;4.78;89.75;101069.38;5076316;28;20288;-62
2024/01/24 07:16:44;;;;;;;17.35;9.85;;;;;;;4.69;89.36;101068.16;5075026;28;20074;-61
2024/01/24 07:19:10;;;;;;;20.73;12.00;;;;;;;4.60;91.31;101066.09;5077395;28;20048;-62
2024/01/24 07:21:35;;;;;;;17.67;10.80;;;;;;;4.62;92.49;101064.22;5076185;28;20095;-62
2024/01/24 07:24:01;;;;;;;19.10;11.13;;;;;;;4.79;93.47;101063.19;5077377;28;20028;-62
2024/01/24 07:26:28;;;;;;;25.42;13.43;;;;;;;4.83;92.22;101075.19;5075401;28;20214;-62
2024/01/24 07:28:54;;;;;;;22.13;11.85;;;;;;;4.96;92.26;101078.75;5077137;28;20103;-64
2024/01/24 07:31:19;;;;;;;19.92;9.68;;;;;;;5.03;91.69;101074.81;5076019;28;20051;-63
2024/01/24 07:33:45;;;;;;;15.05;7.90;;;;;;;5.14;91.45;101084.66;5076923;28;20036;-62
2024/01/24 07:36:10;;;;;;;13.52;6.60;;;;;;;5.16;91.62;101081.94;5074582;28;20042;-62
2024/01/24 07:38:37;;;;;;;15.73;8.30;;;;;;;5.19;91.91;101081.75;5076524;28;20103;-62
2024/01/24 07:41:03;;;;;;;9.60;5.40;;;;;;;5.13;91.59;101073.31;5074405;28;20103;-62
2024/01/24 07:43:29;;;;;;;9.13;6.03;;;;;;;5.26;91.43;101090.97;5075831;28;20040;-63
2024/01/24 07:45:55;;;;;;;11.63;7.80;;;;;;;5.20;93.01;101079.06;5075964;28;20157;-64
2024/01/24 07:48:21;;;;;;;10.77;6.97;;;;;;;5.27;92.58;101080.38;5076181;28;20506;-63
2024/01/24 07:50:46;;;;;;;13.65;7.90;;;;;;;5.33;91.95;101081.78;5075875;28;20032;-62
2024/01/24 07:53:12;;;;;;;13.13;7.88;;;;;;;5.42;92.13;101078.56;5075177;28;20043;-63
2024/01/24 07:55:37;;;;;;;15.68;7.72;;;;;;;5.36;92.01;101071.91;5076671;28;20104;-64
2024/01/24 07:58:03;;;;;;;16.08;8.20;;;;;;;5.32;92.66;101077.47;5074605;28;20051;-64
2024/01/24 08:00:30;;;;;;;12.65;7.20;;;;;;;5.33;92.76;101079.16;5076953;28;20085;-62
2024/01/24 08:02:58;;;;;;;15.63;8.32;;;;;;;5.33;93.00;101087.88;5073789;28;20048;-62
2024/01/24 08:05:23;;;;;;;11.90;7.47;;;;;;;5.41;92.38;101072.47;5076741;28;20310;-64
2024/01/24 08:07:50;;;;;;;13.32;8.70;;;;;;;5.57;92.02;101084.63;5073794;28;20039;-62
2024/01/24 08:10:16;;;;;;;13.50;7.95;;;;;;;5.60;91.90;101080.03;5076305;28;20059;-63
2024/01/24 08:12:41;;;;;;;13.32;7.80;;;;;;;5.69;91.97;101091.72;5075953;28;20040;-63
2024/01/24 08:15:08;;;;;;;10.98;6.18;;;;;;;5.80;91.56;101101.56;5075990;28;20029;-64
2024/01/24 08:17:35;;;;;;;9.02;6.07;;;;;;;5.97;89.01;101078.53;5075892;28;20205;-64
2024/01/24 08:20:08;;;;;;;8.05;4.03;;;;;;;6.15;85.32;101087.00;5080113;28;20041;-63
2024/01/24 08:22:34;;;;;;;7.30;4.97;;;;;;;6.32;85.24;101102.53;5079435;28;20690;-62
2024/01/24 08:25:00;;;;;;;10.57;6.18;;;;;;;6.35;85.09;101094.44;5079273;28;20067;-63
2024/01/24 08:27:26;;;;;;;11.63;6.43;;;;;;;6.51;84.83;101089.00;5079596;28;20045;-62
2024/01/24 08:29:52;;;;;;;10.63;5.10;;;;;;;6.65;84.39;101101.22;5079601;28;20063;-63
2024/01/24 08:32:18;;;;;;;9.00;5.15;;;;;;;6.79;84.03;101095.88;5079756;28;20044;-63
2024/01/24 08:34:43;;;;;;;9.40;5.45;;;;;;;6.78;83.67;101109.97;5079698;28;20211;-64
2024/01/24 08:37:09;;;;;;;9.80;5.68;;;;;;;6.91;83.72;101102.06;5080559;28;20035;-62
2024/01/24 08:39:35;;;;;;;10.07;6.80;;;;;;;6.96;82.91;101100.81;5077501;28;20040;-62
2024/01/24 08:42:01;;;;;;;11.10;5.82;;;;;;;7.14;82.52;101111.84;5080360;28;20044;-62
2024/01/24 08:44:27;;;;;;;9.55;6.10;;;;;;;7.03;82.64;101107.34;5078400;28;20273;-63
2024/01/24 08:46:53;;;;;;;8.30;5.28;;;;;;;7.17;81.34;101103.75;5080039;28;20093;-63
2024/01/24 08:49:18;;;;;;;10.15;5.53;;;;;;;7.23;81.60;101105.09;5078850;28;20047;-64
2024/01/24 08:51:44;;;;;;;10.57;5.82;;;;;;;7.15;82.22;101100.38;5080219;28;20048;-64
2024/01/24 08:54:10;;;;;;;10.82;5.70;;;;;;;7.18;82.12;101092.25;5078712;28;20322;-62
2024/01/24 08:56:37;;;;;;;11.57;5.90;;;;;;;7.11;80.44;101093.63;5079476;28;20040;-62
2024/01/24 08:59:03;;;;;;;9.45;6.28;;;;;;;7.22;81.86;101106.06;5078568;28;20037;-62
2024/01/24 09:01:29;;;;;;;7.93;5.13;;;;;;;7.22;81.38;101104.25;5078531;28;20370;-64
2024/01/24 09:03:54;;;;;;;12.57;5.70;;;;;;;7.20;80.81;101105.31;5079361;28;20037;-64
2024/01/24 09:06:21;;;;;;;10.32;5.18;;;;;;;7.30;81.96;101101.97;5078979;28;20025;-63
2024/01/24 09:08:53;;;;;;;8.15;5.32;;;;;;;7.29;81.86;101102.91;5078216;28;20032;-62
2024/01/24 09:11:22;;;;;;;12.75;6.88;;;;;;;7.29;81.12;101095.00;5078744;28;20041;-62
2024/01/24 09:13:48;;;;;;;10.45;5.35;;;;;;;7.35;82.09;101091.94;5079753;28;20361;-62
2024/01/24 09:16:14;;;;;;;9.05;5.05;;;;;;;7.36;81.50;101082.25;5076787;28;20036;-61
2024/01/24 09:18:41;;;;;;;8.98;5.18;;;;;;;7.39;82.16;101079.41;5080006;28;20036;-62
2024/01/24 09:21:09;;;;;;;11.00;5.80;;;;;;;7.39;81.99;101078.56;5078448;28;20466;-62
2024/01/24 09:23:35;;;;;;;10.40;5.38;;;;;;;7.47;82.14;101089.38;5079906;28;20037;-62
2024/01/24 09:26:02;;;;;;;9.40;5.20;;;;;;;7.42;81.52;101081.81;5077560;28;20321;-62
2024/01/24 09:28:28;;;;;;;9.50;6.30;;;;;;;7.40;82.22;101082.88;5078728;28;20047;-64
2024/01/24 09:30:53;;;;;;;6.97;5.50;;;;;;;7.41;82.73;101074.00;5078244;28;20040;-64
2024/01/24 09:33:19;;;;;;;8.52;5.88;;;;;;;7.49;82.94;101077.78;5079039;28;20037;-62
2024/01/24 09:35:46;;;;;;;9.35;6.38;;;;;;;7.54;82.69;101067.75;5078229;28;20318;-62
2024/01/24 09:38:14;;;;;;;9.75;5.68;;;;;;;7.50;83.00;101068.09;5078553;28;20110;-62
2024/01/24 09:40:41;;;;;;;8.07;5.57;;;;;;;7.54;82.96;101066.91;5078627;28;20035;-64
2024/01/24 09:43:09;;;;;;;13.23;6.82;;;;;;;7.43;83.76;101072.13;5077802;28;20100;-62
2024/01/24 09:45:39;;;;;;;11.02;5.30;;;;;;;7.45;82.96;101072.84;5078410;28;20020;-62
2024/01/24 09:48:06;;;;;;;9.35;5.30;;;;;;;7.44;83.03;101064.09;5078003;28;20047;-62
2024/01/24 09:50:32;;;;;;;8.93;5.40;;;;;;;7.53;82.87;101059.97;5077596;28;20125;-62
2024/01/24 09:52:58;;;;;;;7.60;5.75;;;;;;;7.55;82.42;101058.91;5078253;28;20055;-62
2024/01/24 09:55:24;;;;;;;9.40;5.55;;;;;;;7.58;82.83;101066.59;5078762;28;20039;-63
2024/01/24 09:57:49;;;;;;;9.07;5.35;;;;;;;7.64;83.94;101065.28;5075036;28;20040;-62
2024/01/24 10:00:15;;;;;;;12.27;6.05;;;;;;;7.67;82.94;101050.09;5078523;28;20036;-64
2024/01/24 10:02:45;;;;;;;8.98;5.78;;;;;;;7.76;83.67;101051.22;5076479;28;20154;-63
2024/01/24 10:05:15;;;;;;;8.82;5.72;;;;;;;7.74;82.12;101042.59;5077126;28;20030;-62
2024/01/24 10:07:41;;;;;;;10.63;5.18;;;;;;;7.71;81.36;101031.41;5076309;28;20048;-62
2024/01/24 10:10:09;;;;;;;10.98;7.00;;;;;;;7.81;83.63;101022.72;5077949;28;20040;-62
2024/01/24 10:12:35;;;;;;;11.57;6.60;;;;;;;7.92;83.99;101021.94;5076871;28;20032;-62
2024/01/24 10:15:01;;;;;;;10.18;6.03;;;;;;;7.93;82.20;101020.97;5078264;28;20036;-62
2024/01/24 10:17:27;;;;;;;8.15;5.32;;;;;;;7.83;81.91;100996.25;5077640;28;20040;-62
2024/01/24 10:19:52;;;;;;;9.60;5.18;;;;;;;7.93;81.70;101008.63;5076864;28;20036;-63
2024/01/24 10:22:19;;;;;;;10.90;5.75;;;;;;;7.70;82.32;101004.22;5077667;28;20043;-63
2024/01/24 10:24:45;;;;;;;9.88;5.85;;;;;;;7.87;83.16;101005.59;5077815;28;20107;-62
2024/01/24 10:27:10;;;;;;;10.40;5.70;;;;;;;7.94;83.83;101002.41;5077022;28;20059;-62
2024/01/24 10:29:38;;;;;;;8.57;5.57;;;;;;;7.99;82.94;100989.69;5077033;28;20029;-62
2024/01/24 10:32:09;;;;;;;8.70;5.70;;;;;;;8.06;83.21;100991.88;5077751;28;20044;-62
2024/01/24 10:34:35;;;;;;;9.30;5.85;;;;;;;8.05;81.54;100988.41;5075618;28;20033;-62
2024/01/24 10:37:01;;;;;;;8.07;4.95;;;;;;;8.04;81.27;100993.78;5077764;28;20032;-63
2024/01/24 10:39:27;;;;;;;9.57;4.95;;;;;;;7.99;80.26;100991.50;5076595;28;20055;-63
2024/01/24 10:42:01;;;;;;;11.57;5.45;;;;;;;8.04;81.07;100991.16;5077027;28;20973;-62
2024/01/24 10:44:32;;;;;;;8.32;5.47;;;;;;;8.10;82.00;100983.63;5076341;28;20491;-63
2024/01/24 10:46:57;;;;;;;10.63;5.45;;;;;;;8.17;81.44;100984.84;5077528;28;20032;-63
2024/01/24 10:49:24;;;;;;;9.70;5.13;;;;;;;8.14;80.22;100985.06;5075275;28;20246;-63
2024/01/24 10:51:49;;;;;;;7.90;4.70;;;;;;;8.14;79.03;100969.25;5078019;28;20066;-64
2024/01/24 10:54:18;;;;;;;10.48;5.13;;;;;;;8.06;78.22;100962.88;5077773;28;20032;-63
2024/01/24 10:56:49;;;;;;;11.00;4.80;;;;;;;8.00;78.31;100967.66;5077654;28;20406;-63
2024/01/24 10:59:16;;;;;;;6.15;4.35;;;;;;;8.05;79.09;100967.28;5075279;28;20047;-65
2024/01/24 11:01:42;;;;;;;7.18;4.63;;;;;;;7.99;79.25;100960.69;5076370;28;20247;-64
2024/01/24 11:04:09;;;;;;;12.15;6.22;;;;;;;8.06;80.01;100962.88;5077331;28;20117;-63
2024/01/24 11:06:52;;;;;;;10.00;5.50;;;;;;;8.11;79.59;100960.72;5076950;28;20028;-63
2024/01/24 11:09:33;;;;;;;8.23;4.93;;;;;;;8.02;79.51;100954.34;5076748;28;20036;-63
2024/01/24 11:11:59;;;;;;;7.53;4.47;;;;;;;8.01;79.51;100956.13;5076242;28;20040;-63
2024/01/24 11:14:33;;;;;;;5.63;4.35;;;;;;;8.04;77.94;100948.94;5076921;28;20040;-64
2024/01/24 11:16:59;;;;;;;7.28;5.15;;;;;;;8.09;79.21;100947.66;5076499;28;20052;-65